createdAt,value
2023-01-01T00:00:06.875Z,26.20
2023-01-01T00:01:06.702Z,26.20
2023-01-01T00:02:06.712Z,26.18
2023-01-01T00:03:06.652Z,26.20
2023-01-01T02:15:41.896Z,26.18
2023-01-01T02:16:41.781Z,26.20
2023-01-01T02:17:41.753Z,26.18
2023-01-01T02:18:41.727Z,26.20
2023-01-01T02:19:41.695Z,26.20
2023-01-01T02:20:41.671Z,26.18
2023-01-01T02:21:41.644Z,26.18
2023-01-01T02:22:41.608Z,26.21
2023-01-01T02:23:41.584Z,26.21
2023-01-01T02:24:41.570Z,26.20
2023-01-01T02:25:41.530Z,26.20
2023-01-01T02:26:41.505Z,26.17
2023-01-01T02:27:41.481Z,26.20
2023-01-01T02:28:41.450Z,26.18
2023-01-01T02:29:41.431Z,26.18
2023-01-01T02:30:41.537Z,26.17
2023-01-01T02:31:41.549Z,26.20
2023-01-01T02:32:41.363Z,26.20
2023-01-01T02:33:41.332Z,26.21
2023-01-01T02:34:41.305Z,26.20
2023-01-01T02:35:41.281Z,26.21
2023-01-01T02:36:41.254Z,26.20
2023-01-01T02:37:41.228Z,26.23
2023-01-01T02:38:41.210Z,26.20
2023-01-01T02:39:41.169Z,26.18
2023-01-01T02:40:41.158Z,26.20
2023-01-01T02:41:41.107Z,26.18
2023-01-01T02:42:41.090Z,26.20
2023-01-01T02:43:41.069Z,26.18
2023-01-01T02:44:41.041Z,26.17
2023-01-01T02:45:40.995Z,26.18
2023-01-01T02:46:40.982Z,26.20
2023-01-01T02:47:40.929Z,26.18
2023-01-01T02:48:40.903Z,26.20
2023-01-01T02:49:40.880Z,26.17
2023-01-01T02:50:40.861Z,26.20
2023-01-01T02:51:40.825Z,26.17
2023-01-01T02:52:40.806Z,26.17
2023-01-01T02:53:40.787Z,26.17
2023-01-01T02:54:40.762Z,26.18
2023-01-01T02:55:40.741Z,26.17
2023-01-01T02:56:40.725Z,26.18
2023-01-01T02:57:40.703Z,26.18
2023-01-01T02:58:40.688Z,26.21
2023-01-01T02:59:40.666Z,26.18
2023-01-01T03:00:40.656Z,26.18
2023-01-01T03:01:40.738Z,26.18
2023-01-01T03:02:43.877Z,26.17
2023-01-01T03:03:40.618Z,26.21
2023-01-01T03:04:40.567Z,26.18
2023-01-01T03:05:40.548Z,26.18
2023-01-01T03:06:40.533Z,26.18
2023-01-01T03:07:40.546Z,26.20
2023-01-01T03:08:40.481Z,26.18
2023-01-01T03:09:40.448Z,26.18
2023-01-01T03:10:40.437Z,26.17
2023-01-01T03:11:40.416Z,26.17
2023-01-01T03:12:40.398Z,26.21
2023-01-01T03:13:40.377Z,26.18
2023-01-01T03:14:40.364Z,26.18
2023-01-01T03:15:40.378Z,26.20
2023-01-01T03:16:40.326Z,26.18
2023-01-01T03:17:40.300Z,26.17
2023-01-01T03:18:40.310Z,26.20
2023-01-01T03:19:40.260Z,26.17
2023-01-01T03:20:40.239Z,26.20
2023-01-01T03:21:40.217Z,26.18
2023-01-01T03:23:44.500Z,26.18
2023-01-01T03:24:40.178Z,26.20
2023-01-01T03:25:40.136Z,26.18
2023-01-01T03:26:40.122Z,26.18
2023-01-01T03:27:40.123Z,26.17
2023-01-01T03:28:40.084Z,26.17
2023-01-01T03:29:40.067Z,26.20
2023-01-01T04:08:39.112Z,26.20
2023-01-01T04:31:38.543Z,26.18
2023-01-01T05:32:37.046Z,26.20
2023-01-01T05:35:36.982Z,26.20
2023-01-01T05:50:36.628Z,26.21
2023-01-01T05:52:36.582Z,26.18
2023-01-01T05:53:36.551Z,26.20
2023-01-01T05:54:36.526Z,26.20
2023-01-01T05:55:36.498Z,26.21
2023-01-01T05:56:36.477Z,26.21
2023-01-01T05:57:36.440Z,26.20
2023-01-01T05:58:36.441Z,26.18
2023-01-01T09:59:30.817Z,26.30
2023-01-01T10:00:30.790Z,26.28
2023-01-01T10:01:30.863Z,26.32
2023-01-01T10:02:30.737Z,26.31
2023-01-01T10:03:30.705Z,26.30
2023-01-01T10:04:30.744Z,26.32
2023-01-01T10:05:30.671Z,26.34
2023-01-01T10:06:30.674Z,26.32
2023-01-01T10:07:30.637Z,26.32
2023-01-01T10:08:30.606Z,26.34
2023-01-01T10:09:30.590Z,26.34
2023-01-01T10:10:30.562Z,26.37
2023-01-01T10:11:30.540Z,26.32
2023-01-01T10:12:30.524Z,26.37
2023-01-01T10:13:30.486Z,26.34
2023-01-01T10:14:30.490Z,26.37
2023-01-01T10:15:30.455Z,26.35
2023-01-01T10:16:30.476Z,26.37
2023-01-01T10:17:30.395Z,26.37
2023-01-01T10:18:30.362Z,26.38
2023-01-01T10:19:30.350Z,26.38
2023-01-01T10:20:30.307Z,26.35
2023-01-01T10:21:30.282Z,26.37
2023-01-01T10:22:30.261Z,26.35
2023-01-01T10:23:30.237Z,26.37
2023-01-01T10:24:30.214Z,26.41
2023-01-01T10:25:30.186Z,26.35
2023-01-01T10:26:30.178Z,26.38
2023-01-01T10:27:30.130Z,26.35
2023-01-01T10:28:30.106Z,26.35
2023-01-01T10:29:30.075Z,26.39
2023-01-01T10:30:30.288Z,26.38
2023-01-01T10:32:30.018Z,26.38
2023-01-01T10:33:29.982Z,26.39
2023-01-01T10:34:29.945Z,26.41
2023-01-01T10:35:30.437Z,26.35
2023-01-01T10:36:29.900Z,26.39
2023-01-01T10:37:29.880Z,26.42
2023-01-01T10:38:29.867Z,26.38
2023-01-01T10:39:29.833Z,26.41
2023-01-01T10:40:29.822Z,26.41
2023-01-01T10:41:29.786Z,26.41
2023-01-01T10:42:29.770Z,26.42
2023-01-01T10:43:29.745Z,26.41
2023-01-01T10:44:29.720Z,26.39
2023-01-01T10:45:29.815Z,26.41
2023-01-01T10:46:32.063Z,26.39
2023-01-01T10:47:29.641Z,26.42
2023-01-01T10:48:29.633Z,26.41
2023-01-01T10:49:29.597Z,26.38
2023-01-01T10:50:29.574Z,26.42
2023-01-01T10:51:29.558Z,26.39
2023-01-01T10:52:29.540Z,26.41
2023-01-01T10:53:29.520Z,26.39
2023-01-01T10:54:31.686Z,26.41
2023-01-01T10:55:29.475Z,26.42
2023-01-01T10:56:29.453Z,26.42
2023-01-01T10:57:29.435Z,26.41
2023-01-01T10:58:29.415Z,26.39
2023-01-01T10:59:29.405Z,26.42
2023-01-01T11:00:29.381Z,26.42
2023-01-01T11:01:29.505Z,26.42
2023-01-01T11:02:29.555Z,26.41
2023-01-01T11:03:29.315Z,26.42
2023-01-01T11:04:29.308Z,26.42
2023-01-01T11:05:29.299Z,26.39
2023-01-01T11:06:29.271Z,26.39
2023-01-01T11:07:29.266Z,26.39
2023-01-01T11:08:29.237Z,26.42
2023-01-01T11:09:29.223Z,26.41
2023-01-01T11:10:29.231Z,26.39
2023-01-01T11:11:29.226Z,26.42
2023-01-01T11:13:03.012Z,26.39
2023-01-01T11:13:29.146Z,26.42
2023-01-01T11:14:29.107Z,26.41
2023-01-01T11:15:29.075Z,26.39
2023-01-01T11:16:29.116Z,26.38
2023-01-01T11:17:29.042Z,26.41
2023-01-01T11:18:29.032Z,26.38
2023-01-01T11:19:28.983Z,26.41
2023-01-01T11:20:28.957Z,26.37
2023-01-01T11:21:28.936Z,26.38
2023-01-01T11:22:28.902Z,26.39
2023-01-01T11:23:28.879Z,26.39
2023-01-01T11:24:28.869Z,26.39
2023-01-01T11:25:28.883Z,26.38
2023-01-01T11:26:28.810Z,26.41
2023-01-01T11:27:28.782Z,26.37
2023-01-01T11:28:28.777Z,26.39
2023-01-01T11:29:28.744Z,26.39
2023-01-01T11:30:28.866Z,26.41
2023-01-01T11:31:28.689Z,26.38
2023-01-01T11:32:28.657Z,26.39
2023-01-01T11:33:28.627Z,26.38
2023-01-01T11:34:28.618Z,26.38
2023-01-01T11:35:28.578Z,26.37
2023-01-01T11:36:28.559Z,26.38
2023-01-01T11:37:28.541Z,26.35
2023-01-01T11:38:30.411Z,26.38
2023-01-01T11:39:28.467Z,26.38
2023-01-01T11:40:28.441Z,26.41
2023-01-01T11:41:28.415Z,26.41
2023-01-01T11:42:28.396Z,26.38
2023-01-01T11:43:28.378Z,26.38
2023-01-01T11:44:28.341Z,26.38
2023-01-01T11:45:30.659Z,26.37
2023-01-01T11:46:28.318Z,26.38
2023-01-01T11:47:28.272Z,26.38
2023-01-01T11:48:28.262Z,26.38
2023-01-01T11:49:28.226Z,26.38
2023-01-01T11:50:28.228Z,26.38
2023-01-01T11:51:28.183Z,26.38
2023-01-01T11:52:28.150Z,26.39
2023-01-01T11:53:28.133Z,26.39
2023-01-01T11:54:28.108Z,26.39
2023-01-01T11:55:28.096Z,26.39
2023-01-01T11:56:28.064Z,26.39
2023-01-01T11:57:28.033Z,26.38
2023-01-01T11:58:28.017Z,26.38
2023-01-01T11:59:27.997Z,26.38
2023-01-01T12:00:27.992Z,26.38
2023-01-01T12:01:28.035Z,26.38
2023-01-01T12:02:27.984Z,26.39
2023-01-01T12:03:33.080Z,26.41
2023-01-01T12:04:27.896Z,26.39
2023-01-01T12:05:27.874Z,26.38
2023-01-01T12:06:27.973Z,26.39
2023-01-01T12:07:27.815Z,26.41
2023-01-01T12:08:27.791Z,26.38
2023-01-01T12:09:27.768Z,26.39
2023-01-01T12:10:27.792Z,26.37
2023-01-01T12:11:27.727Z,26.41
2023-01-01T12:12:27.712Z,26.38
2023-01-01T12:13:27.705Z,26.41
2023-01-01T12:14:32.567Z,26.39
2023-01-01T12:15:27.641Z,26.37
2023-01-01T12:16:27.645Z,26.38
2023-01-01T12:17:27.590Z,26.39
2023-01-01T12:18:27.574Z,26.38
2023-01-01T12:19:27.549Z,26.37
2023-01-01T12:20:27.536Z,26.37
2023-01-01T12:21:27.510Z,26.38
2023-01-01T12:22:27.522Z,26.38
2023-01-01T12:23:27.461Z,26.39
2023-01-01T12:24:27.446Z,26.39
2023-01-01T12:25:27.499Z,26.38
2023-01-01T12:26:27.407Z,26.37
2023-01-01T12:27:27.393Z,26.37
2023-01-01T12:28:27.362Z,26.38
2023-01-01T12:29:27.342Z,26.37
2023-01-01T12:30:27.321Z,26.38
2023-01-01T12:31:27.345Z,26.39
2023-01-01T12:32:27.293Z,26.37
2023-01-01T12:33:27.276Z,26.39
2023-01-01T12:34:27.248Z,26.37
2023-01-01T12:35:27.232Z,26.37
2023-01-01T12:36:27.209Z,26.38
2023-01-01T12:37:27.196Z,26.35
2023-01-01T12:38:27.204Z,26.37
2023-01-01T12:39:27.162Z,26.37
2023-01-01T12:40:27.142Z,26.37
2023-01-01T12:41:27.163Z,26.37
2023-01-01T12:42:27.123Z,26.37
2023-01-01T12:43:27.087Z,26.35
2023-01-01T12:44:27.068Z,26.37
2023-01-01T12:45:30.928Z,26.37
2023-01-01T12:46:27.082Z,26.37
2023-01-01T12:47:26.999Z,26.37
2023-01-01T12:48:26.969Z,26.37
2023-01-01T12:49:26.959Z,26.38
2023-01-01T12:50:26.921Z,26.35
2023-01-01T12:51:26.950Z,26.35
2023-01-01T12:52:26.875Z,26.37
2023-01-01T12:53:26.848Z,26.34
2023-01-01T12:54:26.858Z,26.37
2023-01-01T12:55:26.809Z,26.37
2023-01-01T12:56:26.786Z,26.34
2023-01-01T12:57:26.779Z,26.37
2023-01-01T12:58:26.737Z,26.35
2023-01-01T12:59:26.718Z,26.37
2023-01-01T13:00:26.722Z,26.35
2023-01-01T13:01:31.721Z,26.37
2023-01-01T13:02:26.854Z,26.34
2023-01-01T13:03:26.696Z,26.35
2023-01-01T13:04:26.618Z,26.37
2023-01-01T13:05:26.588Z,26.34
2023-01-01T13:06:28.630Z,26.34
2023-01-01T13:07:26.546Z,26.34
2023-01-01T13:08:26.533Z,26.32
2023-01-01T13:09:26.505Z,26.32
2023-01-01T13:10:26.514Z,26.34
2023-01-01T13:11:26.470Z,26.32
2023-01-01T13:12:26.457Z,26.34
2023-01-01T15:57:10.869Z,26.00
2023-01-01T16:19:10.706Z,26.00
2023-01-01T16:20:10.687Z,26.04
2023-01-01T16:21:10.598Z,26.03
2023-01-01T16:22:10.577Z,26.07
2023-01-01T16:23:10.501Z,26.04
2023-01-01T16:24:10.415Z,26.04
2023-01-01T16:25:10.362Z,26.05
2023-01-01T16:26:10.308Z,26.05
2023-01-01T16:27:10.250Z,26.04
2023-01-01T16:28:10.203Z,26.07
2023-01-01T16:29:10.137Z,26.07
2023-01-01T16:30:10.076Z,26.05
2023-01-01T16:31:10.049Z,26.07
2023-01-01T16:32:09.967Z,26.05
2023-01-01T16:33:09.924Z,26.04
2023-01-01T16:34:09.841Z,26.07
2023-01-01T16:35:11.992Z,26.07
2023-01-01T16:36:09.737Z,26.05
2023-01-01T16:37:09.702Z,26.05
2023-01-01T16:38:09.664Z,26.08
2023-01-01T16:39:09.607Z,26.05
2023-01-01T16:40:09.543Z,26.10
2023-01-01T16:41:09.484Z,26.08
2023-01-01T16:42:09.435Z,26.07
2023-01-01T16:43:09.420Z,26.08
2023-01-01T16:44:09.318Z,26.07
2023-01-01T16:45:09.268Z,26.07
2023-01-01T16:46:13.299Z,26.08
2023-01-01T16:47:09.150Z,26.10
2023-01-01T16:48:09.099Z,26.08
2023-01-01T16:49:09.056Z,26.08
2023-01-01T16:50:09.012Z,26.08
2023-01-01T16:51:08.929Z,26.08
2023-01-01T16:52:08.876Z,26.10
2023-01-01T16:53:08.831Z,26.11
2023-01-01T16:54:08.791Z,26.08
2023-01-01T16:55:08.710Z,26.11
2023-01-01T16:56:08.664Z,26.11
2023-01-01T16:57:08.611Z,26.10
2023-01-01T16:58:47.434Z,26.08
2023-01-01T16:59:08.583Z,26.10
2023-01-01T17:00:08.452Z,26.08
2023-01-01T17:01:08.589Z,26.10
2023-01-01T17:02:08.465Z,26.10
2023-01-01T17:03:08.308Z,26.08
2023-01-01T17:04:08.224Z,26.11
2023-01-01T17:05:08.148Z,26.11
2023-01-01T17:06:08.085Z,26.10
2023-01-01T17:07:08.031Z,26.10
2023-01-01T17:08:07.963Z,26.10
2023-01-01T17:09:07.915Z,26.13
2023-01-01T17:10:07.981Z,26.11
2023-01-01T17:11:09.965Z,26.13
2023-01-01T17:12:07.737Z,26.10
2023-01-01T17:13:07.704Z,26.08
2023-01-01T17:14:07.636Z,26.11
2023-01-01T17:15:07.556Z,26.11
2023-01-01T17:16:07.642Z,26.13
2023-01-01T17:17:07.458Z,26.10
2023-01-01T17:18:07.420Z,26.11
2023-01-01T17:19:16.060Z,26.13
2023-01-01T17:20:07.276Z,26.11
2023-01-01T17:21:07.207Z,26.13
2023-01-01T17:22:07.141Z,26.08
2023-01-01T17:23:07.081Z,26.11
2023-01-01T17:24:07.047Z,26.11
2023-01-01T17:25:06.962Z,26.11
2023-01-01T17:26:06.954Z,26.14
2023-01-01T17:27:06.849Z,26.13
2023-01-01T17:28:06.784Z,26.11
2023-01-01T17:29:06.732Z,26.13
2023-01-01T17:30:06.661Z,26.13
2023-01-01T17:31:06.655Z,26.10
2023-01-01T17:32:06.670Z,26.13
2023-01-01T17:33:06.470Z,26.13
2023-01-01T17:34:06.503Z,26.13
2023-01-01T19:39:58.844Z,26.16
2023-01-01T19:40:58.820Z,26.13
2023-01-01T19:41:58.729Z,26.10
2023-01-01T19:42:58.692Z,26.14
2023-01-01T19:43:58.621Z,26.16
2023-01-01T19:44:58.566Z,26.16
2023-01-01T19:45:58.518Z,26.16
2023-01-01T19:46:58.519Z,26.13
2023-01-01T19:47:58.404Z,26.13
2023-01-01T19:48:58.367Z,26.11
2023-01-01T19:49:58.331Z,26.14
2023-01-01T19:50:58.248Z,26.13
2023-01-01T19:51:58.193Z,26.13
2023-01-01T19:52:58.138Z,26.11
2023-01-01T19:53:58.095Z,26.14
2023-01-01T19:54:58.047Z,26.16
2023-01-01T19:55:57.996Z,26.14
2023-01-01T19:56:57.956Z,26.14
2023-01-01T19:57:57.881Z,26.13
2023-01-01T19:58:57.835Z,26.14
2023-01-01T19:59:57.773Z,26.11
2023-01-01T20:00:57.817Z,26.16
2023-01-01T20:02:25.869Z,26.14
2023-01-01T20:03:12.964Z,26.14
2023-01-01T20:03:57.953Z,26.16
2023-01-01T20:04:57.590Z,26.14
2023-01-01T20:05:57.457Z,26.14
2023-01-01T20:06:57.358Z,26.14
2023-01-01T20:07:57.304Z,26.14
2023-01-01T20:08:57.250Z,26.14
2023-01-01T20:09:57.190Z,26.16
2023-01-01T20:10:57.118Z,26.11
2023-01-01T20:11:57.072Z,26.16
2023-01-01T20:12:57.006Z,26.14
2023-01-01T20:13:56.952Z,26.13
2023-01-01T20:14:56.880Z,26.13
2023-01-01T20:15:56.861Z,26.14
2023-01-01T20:16:56.763Z,26.14
2023-01-01T20:17:56.705Z,26.16
2023-01-01T20:18:56.708Z,26.11
2023-01-01T20:19:56.594Z,26.16
2023-01-01T20:20:56.535Z,26.13
2023-01-01T20:21:56.498Z,26.13
2023-01-01T21:43:39.864Z,26.11
2023-01-01T21:44:40.802Z,26.10
2023-01-01T21:45:40.933Z,26.11
2023-01-01T21:46:40.716Z,26.10
2023-01-01T21:47:40.672Z,26.13
2023-01-01T21:48:40.622Z,26.11
2023-01-01T21:49:40.580Z,26.08
2023-01-01T21:50:40.528Z,26.10
2023-01-01T21:51:40.482Z,26.11
2023-01-01T21:52:47.286Z,26.11
2023-01-01T21:53:40.392Z,26.11
2023-01-01T21:54:40.340Z,26.10
2023-01-01T21:55:40.299Z,26.13
2023-01-01T21:56:40.253Z,26.10
2023-01-01T21:57:40.200Z,26.10
2023-01-01T21:58:40.151Z,26.11
2023-01-01T21:59:40.131Z,26.13
2023-01-01T22:00:40.093Z,26.10
2023-01-01T22:01:40.161Z,26.13
2023-01-01T22:02:40.275Z,26.13
2023-01-01T22:03:39.917Z,26.11
2023-01-01T22:04:39.873Z,26.13
2023-01-01T22:05:39.834Z,26.14
2023-01-01T22:06:39.783Z,26.11
2023-01-01T22:08:39.699Z,26.13
2023-01-01T22:09:39.641Z,26.13
2023-01-01T22:10:39.609Z,26.13
2023-01-01T22:11:39.525Z,26.10
2023-01-01T22:12:39.470Z,26.11
2023-01-01T22:13:39.423Z,26.13
2023-01-01T22:14:39.378Z,26.13
2023-01-01T22:15:39.409Z,26.13
2023-01-01T22:16:39.311Z,26.13
2023-01-01T22:17:39.219Z,26.13
2023-01-01T22:18:39.145Z,26.13
2023-01-01T22:19:39.095Z,26.13
2023-01-01T22:20:39.047Z,26.11
2023-01-01T22:21:38.979Z,26.14
2023-01-01T22:22:38.928Z,26.13
2023-01-01T22:23:38.872Z,26.13
2023-01-01T22:24:38.825Z,26.11
2023-01-01T22:25:38.756Z,26.14
2023-01-01T22:26:38.703Z,26.13
2023-01-01T22:27:38.650Z,26.11
2023-01-01T22:28:38.611Z,26.11
2023-01-01T22:29:38.539Z,26.11
2023-01-01T22:30:38.582Z,26.11
2023-01-01T22:31:39.074Z,26.10
2023-01-01T22:32:38.372Z,26.08
2023-01-01T22:33:38.319Z,26.11
2023-01-01T22:34:38.261Z,26.10
2023-01-01T22:35:38.213Z,26.13
2023-01-01T22:36:38.143Z,26.11
2023-01-01T22:37:38.089Z,26.11
2023-01-01T22:38:38.033Z,26.14
2023-01-01T22:39:38.002Z,26.11
2023-01-01T22:40:37.915Z,26.11
2023-01-01T22:41:37.860Z,26.11
2023-01-01T22:42:37.798Z,26.11
2023-01-01T22:43:37.746Z,26.14
2023-01-01T22:44:37.689Z,26.13
2023-01-01T22:45:37.630Z,26.10
2023-01-01T22:46:37.783Z,26.13
2023-01-01T22:47:37.531Z,26.10
2023-01-01T22:48:37.456Z,26.16
2023-01-01T22:49:37.397Z,26.13
2023-01-01T22:50:37.338Z,26.11
2023-01-01T22:51:37.295Z,26.13
2023-01-01T22:52:37.236Z,26.13
2023-01-01T22:53:37.174Z,26.13
2023-01-01T22:54:37.114Z,26.13
2023-01-01T22:55:37.059Z,26.11
2023-01-01T22:56:37.002Z,26.11
2023-01-01T22:57:36.957Z,26.13
2023-01-01T22:58:36.901Z,26.13
2023-01-01T22:59:36.854Z,26.13
2023-01-01T23:00:36.800Z,26.11
2023-01-01T23:01:36.791Z,26.13
2023-01-01T23:02:36.729Z,26.13
2023-01-01T23:03:36.695Z,26.13
2023-01-01T23:04:36.563Z,26.14
2023-01-01T23:05:36.506Z,26.14
2023-01-01T23:06:36.455Z,26.13
